sensor_id;sensor_type;location;lat;lon;timestamp;temperature;humidity
41668;DHT22;27356;50.920;5.350;2023-06-26T00:02:21;23.60;96.90
41668;DHT22;27356;50.920;5.350;2023-06-26T00:04:47;23.60;97.10
41668;DHT22;27356;50.920;5.350;2023-06-26T00:07:13;23.50;97.30
41668;DHT22;27356;50.920;5.350;2023-06-26T00:09:38;23.40;97.60
41668;DHT22;27356;50.920;5.350;2023-06-26T00:12:05;23.40;97.80
41668;DHT22;27356;50.920;5.350;2023-06-26T00:14:31;23.30;98.00
41668;DHT22;27356;50.920;5.350;2023-06-26T00:16:57;23.30;98.30
41668;DHT22;27356;50.920;5.350;2023-06-26T00:19:22;23.30;98.30
41668;DHT22;27356;50.920;5.350;2023-06-26T00:21:48;23.20;98.50
41668;DHT22;27356;50.920;5.350;2023-06-26T00:24:14;23.30;98.50
41668;DHT22;27356;50.920;5.350;2023-06-26T00:26:40;23.20;98.60
41668;DHT22;27356;50.920;5.350;2023-06-26T00:29:06;23.10;98.90
41668;DHT22;27356;50.920;5.350;2023-06-26T00:31:32;23.00;99.30
41668;DHT22;27356;50.920;5.350;2023-06-26T00:33:58;23.00;99.40
41668;DHT22;27356;50.920;5.350;2023-06-26T00:36:24;22.90;99.70
41668;DHT22;27356;50.920;5.350;2023-06-26T00:38:52;22.90;99.70
41668;DHT22;27356;50.920;5.350;2023-06-26T00:41:18;22.90;99.80
41668;DHT22;27356;50.920;5.350;2023-06-26T00:43:44;22.80;99.90
41668;DHT22;27356;50.920;5.350;2023-06-26T00:46:12;22.90;99.90
41668;DHT22;27356;50.920;5.350;2023-06-26T00:48:39;22.90;99.90
41668;DHT22;27356;50.920;5.350;2023-06-26T00:51:06;22.80;99.90
41668;DHT22;27356;50.920;5.350;2023-06-26T00:53:32;22.80;99.90
41668;DHT22;27356;50.920;5.350;2023-06-26T00:55:59;22.80;99.90
41668;DHT22;27356;50.920;5.350;2023-06-26T00:58:25;22.80;99.90
41668;DHT22;27356;50.920;5.350;2023-06-26T01:00:51;22.80;99.90
41668;DHT22;27356;50.920;5.350;2023-06-26T01:03:19;22.80;99.90
41668;DHT22;27356;50.920;5.350;2023-06-26T01:05:45;22.70;99.90
41668;DHT22;27356;50.920;5.350;2023-06-26T01:08:16;22.70;99.90
41668;DHT22;27356;50.920;5.350;2023-06-26T01:10:42;22.70;99.90
41668;DHT22;27356;50.920;5.350;2023-06-26T01:13:08;22.60;99.90
41668;DHT22;27356;50.920;5.350;2023-06-26T01:15:34;22.60;99.90
41668;DHT22;27356;50.920;5.350;2023-06-26T01:18:01;22.60;99.90
41668;DHT22;27356;50.920;5.350;2023-06-26T01:20:36;22.50;99.90
41668;DHT22;27356;50.920;5.350;2023-06-26T01:23:24;22.40;99.90
41668;DHT22;27356;50.920;5.350;2023-06-26T01:26:21;22.30;99.90
41668;DHT22;27356;50.920;5.350;2023-06-26T01:28:49;22.30;99.90
41668;DHT22;27356;50.920;5.350;2023-06-26T01:31:16;22.30;99.90
41668;DHT22;27356;50.920;5.350;2023-06-26T01:33:43;22.30;99.90
41668;DHT22;27356;50.920;5.350;2023-06-26T01:36:09;22.30;99.90
41668;DHT22;27356;50.920;5.350;2023-06-26T01:38:35;22.30;99.90
41668;DHT22;27356;50.920;5.350;2023-06-26T01:41:02;22.20;99.90
41668;DHT22;27356;50.920;5.350;2023-06-26T01:49:49;22.20;99.90
41668;DHT22;27356;50.920;5.350;2023-06-26T01:51:58;22.10;99.90
41668;DHT22;27356;50.920;5.350;2023-06-26T01:54:30;22.00;99.90
41668;DHT22;27356;50.920;5.350;2023-06-26T01:56:57;22.00;99.90
41668;DHT22;27356;50.920;5.350;2023-06-26T01:59:24;22.00;99.90
41668;DHT22;27356;50.920;5.350;2023-06-26T02:01:52;22.10;99.90
41668;DHT22;27356;50.920;5.350;2023-06-26T02:04:18;22.00;99.90
41668;DHT22;27356;50.920;5.350;2023-06-26T02:06:44;22.00;99.90
41668;DHT22;27356;50.920;5.350;2023-06-26T02:09:09;22.00;99.90
41668;DHT22;27356;50.920;5.350;2023-06-26T02:11:35;22.00;99.90
41668;DHT22;27356;50.920;5.350;2023-06-26T02:14:01;21.90;99.90
41668;DHT22;27356;50.920;5.350;2023-06-26T02:16:27;21.90;99.90
41668;DHT22;27356;50.920;5.350;2023-06-26T02:18:52;21.80;99.90
41668;DHT22;27356;50.920;5.350;2023-06-26T02:21:18;21.80;99.90
41668;DHT22;27356;50.920;5.350;2023-06-26T02:23:45;21.60;99.90
41668;DHT22;27356;50.920;5.350;2023-06-26T02:26:11;21.50;99.90
41668;DHT22;27356;50.920;5.350;2023-06-26T02:28:37;21.40;99.90
41668;DHT22;27356;50.920;5.350;2023-06-26T02:31:02;21.30;99.90
41668;DHT22;27356;50.920;5.350;2023-06-26T02:33:28;21.30;99.90
41668;DHT22;27356;50.920;5.350;2023-06-26T02:35:54;21.30;99.90
41668;DHT22;27356;50.920;5.350;2023-06-26T02:38:20;21.20;99.90
41668;DHT22;27356;50.920;5.350;2023-06-26T02:40:45;21.20;99.90
41668;DHT22;27356;50.920;5.350;2023-06-26T02:43:11;21.10;99.90
41668;DHT22;27356;50.920;5.350;2023-06-26T02:45:37;21.00;99.90
41668;DHT22;27356;50.920;5.350;2023-06-26T02:48:03;21.00;99.90
41668;DHT22;27356;50.920;5.350;2023-06-26T02:50:28;21.00;99.90
41668;DHT22;27356;50.920;5.350;2023-06-26T02:52:54;21.00;99.90
41668;DHT22;27356;50.920;5.350;2023-06-26T02:55:20;21.00;99.90
41668;DHT22;27356;50.920;5.350;2023-06-26T02:57:46;20.90;99.90
41668;DHT22;27356;50.920;5.350;2023-06-26T03:00:13;21.00;99.90
41668;DHT22;27356;50.920;5.350;2023-06-26T03:02:39;20.90;99.90
41668;DHT22;27356;50.920;5.350;2023-06-26T03:05:05;21.00;99.90
41668;DHT22;27356;50.920;5.350;2023-06-26T03:07:31;21.10;99.90
41668;DHT22;27356;50.920;5.350;2023-06-26T03:09:56;21.00;99.90
41668;DHT22;27356;50.920;5.350;2023-06-26T03:12:22;21.00;99.90
41668;DHT22;27356;50.920;5.350;2023-06-26T03:14:48;21.00;99.90
41668;DHT22;27356;50.920;5.350;2023-06-26T03:17:14;21.00;99.90
41668;DHT22;27356;50.920;5.350;2023-06-26T03:19:39;21.00;99.90
41668;DHT22;27356;50.920;5.350;2023-06-26T03:22:05;21.10;99.90
41668;DHT22;27356;50.920;5.350;2023-06-26T03:24:31;21.10;99.90
41668;DHT22;27356;50.920;5.350;2023-06-26T03:26:57;21.00;99.90
41668;DHT22;27356;50.920;5.350;2023-06-26T03:29:22;20.90;99.90
41668;DHT22;27356;50.920;5.350;2023-06-26T03:31:48;20.90;99.90
41668;DHT22;27356;50.920;5.350;2023-06-26T03:34:14;20.90;99.90
41668;DHT22;27356;50.920;5.350;2023-06-26T03:36:40;20.60;99.90
41668;DHT22;27356;50.920;5.350;2023-06-26T03:39:06;20.60;99.90
41668;DHT22;27356;50.920;5.350;2023-06-26T03:41:32;20.60;99.90
41668;DHT22;27356;50.920;5.350;2023-06-26T03:43:58;20.50;99.90
41668;DHT22;27356;50.920;5.350;2023-06-26T03:46:26;20.50;99.90
41668;DHT22;27356;50.920;5.350;2023-06-26T03:48:51;20.50;99.90
41668;DHT22;27356;50.920;5.350;2023-06-26T03:51:17;20.50;99.90
41668;DHT22;27356;50.920;5.350;2023-06-26T03:53:43;20.40;99.90
41668;DHT22;27356;50.920;5.350;2023-06-26T03:56:09;20.40;99.90
41668;DHT22;27356;50.920;5.350;2023-06-26T03:58:35;20.50;99.90
41668;DHT22;27356;50.920;5.350;2023-06-26T04:01:01;20.50;99.90
41668;DHT22;27356;50.920;5.350;2023-06-26T04:03:26;20.50;99.90
41668;DHT22;27356;50.920;5.350;2023-06-26T04:05:52;20.60;99.90
41668;DHT22;27356;50.920;5.350;2023-06-26T04:08:18;20.60;99.90
41668;DHT22;27356;50.920;5.350;2023-06-26T04:10:45;20.50;99.90
41668;DHT22;27356;50.920;5.350;2023-06-26T04:13:11;20.60;99.90
41668;DHT22;27356;50.920;5.350;2023-06-26T04:15:37;20.60;99.90
41668;DHT22;27356;50.920;5.350;2023-06-26T04:18:03;20.70;99.90
41668;DHT22;27356;50.920;5.350;2023-06-26T04:20:29;20.70;99.90
41668;DHT22;27356;50.920;5.350;2023-06-26T04:22:54;20.70;99.90
41668;DHT22;27356;50.920;5.350;2023-06-26T04:25:20;20.90;99.90
41668;DHT22;27356;50.920;5.350;2023-06-26T04:27:46;21.30;99.90
41668;DHT22;27356;50.920;5.350;2023-06-26T04:30:12;21.50;99.90
41668;DHT22;27356;50.920;5.350;2023-06-26T04:32:38;21.90;99.90
41668;DHT22;27356;50.920;5.350;2023-06-26T04:35:04;22.30;99.90
41668;DHT22;27356;50.920;5.350;2023-06-26T04:37:30;22.60;99.90
41668;DHT22;27356;50.920;5.350;2023-06-26T04:39:56;22.60;99.90
41668;DHT22;27356;50.920;5.350;2023-06-26T04:42:21;22.60;99.90
41668;DHT22;27356;50.920;5.350;2023-06-26T04:44:47;22.60;99.90
41668;DHT22;27356;50.920;5.350;2023-06-26T04:47:13;22.60;99.90
41668;DHT22;27356;50.920;5.350;2023-06-26T04:49:43;22.80;99.90
41668;DHT22;27356;50.920;5.350;2023-06-26T04:52:11;23.00;99.90
41668;DHT22;27356;50.920;5.350;2023-06-26T04:54:39;23.30;99.90
41668;DHT22;27356;50.920;5.350;2023-06-26T04:57:05;23.30;99.90
41668;DHT22;27356;50.920;5.350;2023-06-26T04:59:31;23.20;99.90
41668;DHT22;27356;50.920;5.350;2023-06-26T05:01:57;23.10;99.90
41668;DHT22;27356;50.920;5.350;2023-06-26T05:04:23;23.20;99.90
41668;DHT22;27356;50.920;5.350;2023-06-26T05:06:49;23.60;99.90
41668;DHT22;27356;50.920;5.350;2023-06-26T05:09:14;23.70;99.30
41668;DHT22;27356;50.920;5.350;2023-06-26T05:11:40;23.60;99.50
41668;DHT22;27356;50.920;5.350;2023-06-26T05:14:06;23.50;99.90
41668;DHT22;27356;50.920;5.350;2023-06-26T05:16:35;23.40;99.90
41668;DHT22;27356;50.920;5.350;2023-06-26T05:19:01;23.30;99.90
41668;DHT22;27356;50.920;5.350;2023-06-26T05:21:28;23.40;99.90
41668;DHT22;27356;50.920;5.350;2023-06-26T05:23:56;23.90;99.50
41668;DHT22;27356;50.920;5.350;2023-06-26T05:26:22;24.40;98.60
41668;DHT22;27356;50.920;5.350;2023-06-26T05:28:48;24.90;96.80
41668;DHT22;27356;50.920;5.350;2023-06-26T05:31:17;25.50;95.00
41668;DHT22;27356;50.920;5.350;2023-06-26T05:33:44;26.10;93.70
41668;DHT22;27356;50.920;5.350;2023-06-26T05:36:12;26.80;92.20
41668;DHT22;27356;50.920;5.350;2023-06-26T05:38:39;27.60;90.60
41668;DHT22;27356;50.920;5.350;2023-06-26T05:41:05;28.00;88.70
41668;DHT22;27356;50.920;5.350;2023-06-26T05:43:31;28.10;87.60
41668;DHT22;27356;50.920;5.350;2023-06-26T05:45:57;28.40;86.80
41668;DHT22;27356;50.920;5.350;2023-06-26T05:48:23;28.80;85.80
41668;DHT22;27356;50.920;5.350;2023-06-26T05:50:49;29.20;84.50
41668;DHT22;27356;50.920;5.350;2023-06-26T05:53:15;29.10;83.90
41668;DHT22;27356;50.920;5.350;2023-06-26T05:55:41;28.90;83.00
41668;DHT22;27356;50.920;5.350;2023-06-26T05:58:10;28.90;83.00
41668;DHT22;27356;50.920;5.350;2023-06-26T06:00:38;28.10;84.90
41668;DHT22;27356;50.920;5.350;2023-06-26T06:03:04;27.00;87.10
41668;DHT22;27356;50.920;5.350;2023-06-26T06:05:30;26.30;89.30
41668;DHT22;27356;50.920;5.350;2023-06-26T06:07:56;25.90;90.10
41668;DHT22;27356;50.920;5.350;2023-06-26T06:10:21;25.80;90.40
41668;DHT22;27356;50.920;5.350;2023-06-26T06:12:47;25.60;90.40
41668;DHT22;27356;50.920;5.350;2023-06-26T06:15:14;25.60;90.60
41668;DHT22;27356;50.920;5.350;2023-06-26T06:17:40;25.40;91.10
41668;DHT22;27356;50.920;5.350;2023-06-26T06:20:05;26.10;90.30
41668;DHT22;27356;50.920;5.350;2023-06-26T06:22:32;26.80;89.10
41668;DHT22;27356;50.920;5.350;2023-06-26T06:24:57;27.60;86.60
41668;DHT22;27356;50.920;5.350;2023-06-26T06:27:23;28.70;83.20
41668;DHT22;27356;50.920;5.350;2023-06-26T06:29:49;28.90;81.40
41668;DHT22;27356;50.920;5.350;2023-06-26T06:32:15;28.50;82.40
41668;DHT22;27356;50.920;5.350;2023-06-26T06:34:40;28.20;82.80
41668;DHT22;27356;50.920;5.350;2023-06-26T06:37:06;27.90;83.40
41668;DHT22;27356;50.920;5.350;2023-06-26T06:39:32;27.90;84.00
41668;DHT22;27356;50.920;5.350;2023-06-26T06:41:58;28.60;82.50
41668;DHT22;27356;50.920;5.350;2023-06-26T06:44:24;28.60;81.10
41668;DHT22;27356;50.920;5.350;2023-06-26T06:46:50;29.00;80.00
41668;DHT22;27356;50.920;5.350;2023-06-26T06:49:16;29.30;79.90
41668;DHT22;27356;50.920;5.350;2023-06-26T06:51:42;29.70;78.80
41668;DHT22;27356;50.920;5.350;2023-06-26T06:54:07;30.00;78.10
41668;DHT22;27356;50.920;5.350;2023-06-26T06:56:34;30.50;77.40
41668;DHT22;27356;50.920;5.350;2023-06-26T06:58:59;31.00;75.10
41668;DHT22;27356;50.920;5.350;2023-06-26T07:01:25;31.10;75.00
41668;DHT22;27356;50.920;5.350;2023-06-26T07:03:51;31.40;74.20
41668;DHT22;27356;50.920;5.350;2023-06-26T07:06:17;31.90;73.00
41668;DHT22;27356;50.920;5.350;2023-06-26T07:08:42;32.40;72.80
41668;DHT22;27356;50.920;5.350;2023-06-26T07:11:08;32.90;71.90
41668;DHT22;27356;50.920;5.350;2023-06-26T07:13:34;32.70;71.90
41668;DHT22;27356;50.920;5.350;2023-06-26T07:16:00;32.70;72.00
41668;DHT22;27356;50.920;5.350;2023-06-26T07:18:26;33.10;71.30
41668;DHT22;27356;50.920;5.350;2023-06-26T07:20:52;33.30;70.20
41668;DHT22;27356;50.920;5.350;2023-06-26T07:23:18;33.20;70.30
41668;DHT22;27356;50.920;5.350;2023-06-26T07:25:44;33.30;70.20
41668;DHT22;27356;50.920;5.350;2023-06-26T07:28:11;33.60;69.50
41668;DHT22;27356;50.920;5.350;2023-06-26T07:30:37;33.80;68.60
41668;DHT22;27356;50.920;5.350;2023-06-26T07:33:03;33.20;69.90
41668;DHT22;27356;50.920;5.350;2023-06-26T07:35:29;33.40;70.00
41668;DHT22;27356;50.920;5.350;2023-06-26T07:37:54;33.60;69.40
41668;DHT22;27356;50.920;5.350;2023-06-26T07:40:20;33.20;70.00
41668;DHT22;27356;50.920;5.350;2023-06-26T07:42:46;33.10;69.70
41668;DHT22;27356;50.920;5.350;2023-06-26T07:45:12;33.10;70.10
41668;DHT22;27356;50.920;5.350;2023-06-26T07:47:39;33.60;69.00
41668;DHT22;27356;50.920;5.350;2023-06-26T07:50:05;33.70;68.40
41668;DHT22;27356;50.920;5.350;2023-06-26T07:52:31;34.10;68.20
41668;DHT22;27356;50.920;5.350;2023-06-26T07:54:57;34.00;67.90
41668;DHT22;27356;50.920;5.350;2023-06-26T07:57:24;34.20;67.90
41668;DHT22;27356;50.920;5.350;2023-06-26T07:59:50;34.50;66.90
41668;DHT22;27356;50.920;5.350;2023-06-26T08:02:16;34.50;67.20
41668;DHT22;27356;50.920;5.350;2023-06-26T08:04:44;34.40;66.70
41668;DHT22;27356;50.920;5.350;2023-06-26T08:07:10;34.20;67.30
41668;DHT22;27356;50.920;5.350;2023-06-26T08:09:36;34.00;67.60
41668;DHT22;27356;50.920;5.350;2023-06-26T08:12:02;34.40;67.20
41668;DHT22;27356;50.920;5.350;2023-06-26T08:14:28;35.00;66.50
41668;DHT22;27356;50.920;5.350;2023-06-26T08:16:54;34.90;66.10
41668;DHT22;27356;50.920;5.350;2023-06-26T08:19:21;35.30;65.80
41668;DHT22;27356;50.920;5.350;2023-06-26T08:21:47;34.50;66.10
41668;DHT22;27356;50.920;5.350;2023-06-26T08:24:13;33.90;66.80
41668;DHT22;27356;50.920;5.350;2023-06-26T08:26:42;33.90;67.70
41668;DHT22;27356;50.920;5.350;2023-06-26T08:29:11;34.70;66.40
41668;DHT22;27356;50.920;5.350;2023-06-26T08:31:39;34.90;65.70
41668;DHT22;27356;50.920;5.350;2023-06-26T08:34:05;35.20;65.40
41668;DHT22;27356;50.920;5.350;2023-06-26T08:36:32;35.60;64.70
41668;DHT22;27356;50.920;5.350;2023-06-26T08:38:59;36.50;64.80
41668;DHT22;27356;50.920;5.350;2023-06-26T08:41:25;36.20;64.20
41668;DHT22;27356;50.920;5.350;2023-06-26T08:43:52;36.50;64.30
41668;DHT22;27356;50.920;5.350;2023-06-26T08:46:22;36.10;64.10
41668;DHT22;27356;50.920;5.350;2023-06-26T08:49:08;35.70;64.90
41668;DHT22;27356;50.920;5.350;2023-06-26T08:51:39;36.00;64.40
41668;DHT22;27356;50.920;5.350;2023-06-26T08:54:12;36.20;63.60
41668;DHT22;27356;50.920;5.350;2023-06-26T08:56:42;36.30;63.60
41668;DHT22;27356;50.920;5.350;2023-06-26T08:59:10;36.40;63.70
41668;DHT22;27356;50.920;5.350;2023-06-26T09:01:38;36.70;63.20
41668;DHT22;27356;50.920;5.350;2023-06-26T09:04:06;37.30;62.70
41668;DHT22;27356;50.920;5.350;2023-06-26T09:06:33;37.50;61.90
41668;DHT22;27356;50.920;5.350;2023-06-26T09:08:59;37.50;61.60
41668;DHT22;27356;50.920;5.350;2023-06-26T09:11:25;36.10;62.70
41668;DHT22;27356;50.920;5.350;2023-06-26T09:13:51;35.80;63.40
41668;DHT22;27356;50.920;5.350;2023-06-26T09:16:27;35.60;63.00
41668;DHT22;27356;50.920;5.350;2023-06-26T09:18:53;36.70;61.90
41668;DHT22;27356;50.920;5.350;2023-06-26T09:21:19;36.90;61.30
41668;DHT22;27356;50.920;5.350;2023-06-26T09:23:45;38.00;61.30
41668;DHT22;27356;50.920;5.350;2023-06-26T09:26:11;38.20;60.50
41668;DHT22;27356;50.920;5.350;2023-06-26T09:28:37;37.70;60.00
41668;DHT22;27356;50.920;5.350;2023-06-26T09:31:05;36.80;60.20
41668;DHT22;27356;50.920;5.350;2023-06-26T09:33:36;35.70;61.50
41668;DHT22;27356;50.920;5.350;2023-06-26T09:36:06;35.10;62.00
41668;DHT22;27356;50.920;5.350;2023-06-26T09:38:34;35.40;62.10
41668;DHT22;27356;50.920;5.350;2023-06-26T09:41:01;36.20;61.60
41668;DHT22;27356;50.920;5.350;2023-06-26T09:43:27;35.50;60.80
41668;DHT22;27356;50.920;5.350;2023-06-26T09:45:53;34.70;61.80
41668;DHT22;27356;50.920;5.350;2023-06-26T09:48:20;34.00;62.70
41668;DHT22;27356;50.920;5.350;2023-06-26T09:50:47;34.70;62.20
41668;DHT22;27356;50.920;5.350;2023-06-26T09:53:13;34.40;62.50
41668;DHT22;27356;50.920;5.350;2023-06-26T09:55:40;34.20;61.80
41668;DHT22;27356;50.920;5.350;2023-06-26T09:58:10;34.40;61.70
41668;DHT22;27356;50.920;5.350;2023-06-26T10:00:42;34.40;60.90
41668;DHT22;27356;50.920;5.350;2023-06-26T10:03:12;34.20;61.10
41668;DHT22;27356;50.920;5.350;2023-06-26T10:05:39;34.10;60.80
41668;DHT22;27356;50.920;5.350;2023-06-26T10:08:06;33.50;62.10
41668;DHT22;27356;50.920;5.350;2023-06-26T10:10:35;32.80;62.40
41668;DHT22;27356;50.920;5.350;2023-06-26T10:13:08;32.20;63.20
41668;DHT22;27356;50.920;5.350;2023-06-26T10:15:37;32.50;63.20
41668;DHT22;27356;50.920;5.350;2023-06-26T10:18:03;33.20;62.50
41668;DHT22;27356;50.920;5.350;2023-06-26T10:20:30;33.60;62.50
41668;DHT22;27356;50.920;5.350;2023-06-26T10:22:58;33.40;61.90
41668;DHT22;27356;50.920;5.350;2023-06-26T10:25:26;33.20;62.40
41668;DHT22;27356;50.920;5.350;2023-06-26T10:27:55;33.20;63.30
41668;DHT22;27356;50.920;5.350;2023-06-26T10:30:29;33.20;62.60
41668;DHT22;27356;50.920;5.350;2023-06-26T10:32:57;33.10;60.40
41668;DHT22;27356;50.920;5.350;2023-06-26T10:35:24;32.50;61.70
41668;DHT22;27356;50.920;5.350;2023-06-26T10:37:50;32.10;62.80
41668;DHT22;27356;50.920;5.350;2023-06-26T10:40:25;31.40;63.50
41668;DHT22;27356;50.920;5.350;2023-06-26T10:42:51;30.80;64.30
41668;DHT22;27356;50.920;5.350;2023-06-26T10:45:33;30.50;65.60
41668;DHT22;27356;50.920;5.350;2023-06-26T10:47:59;30.80;64.10
41668;DHT22;27356;50.920;5.350;2023-06-26T10:50:32;31.20;64.20
41668;DHT22;27356;50.920;5.350;2023-06-26T10:55:58;31.00;63.50
41668;DHT22;27356;50.920;5.350;2023-06-26T11:03:38;29.80;62.50
41668;DHT22;27356;50.920;5.350;2023-06-26T11:06:11;29.50;61.70
41668;DHT22;27356;50.920;5.350;2023-06-26T11:08:48;29.60;63.20
41668;DHT22;27356;50.920;5.350;2023-06-26T11:11:15;30.00;63.00
41668;DHT22;27356;50.920;5.350;2023-06-26T11:13:42;30.50;63.10
41668;DHT22;27356;50.920;5.350;2023-06-26T11:16:08;30.60;61.20
41668;DHT22;27356;50.920;5.350;2023-06-26T11:18:34;30.50;59.70
41668;DHT22;27356;50.920;5.350;2023-06-26T11:21:10;30.40;62.20
41668;DHT22;27356;50.920;5.350;2023-06-26T11:23:37;30.20;62.10
41668;DHT22;27356;50.920;5.350;2023-06-26T11:26:17;30.20;62.50
41668;DHT22;27356;50.920;5.350;2023-06-26T11:28:54;29.90;63.20
41668;DHT22;27356;50.920;5.350;2023-06-26T11:31:27;30.20;63.30
41668;DHT22;27356;50.920;5.350;2023-06-26T11:33:53;30.50;62.30
41668;DHT22;27356;50.920;5.350;2023-06-26T11:36:22;30.50;62.10
41668;DHT22;27356;50.920;5.350;2023-06-26T11:38:56;30.70;61.70
41668;DHT22;27356;50.920;5.350;2023-06-26T11:41:23;30.20;62.10
41668;DHT22;27356;50.920;5.350;2023-06-26T11:43:49;29.90;61.10
41668;DHT22;27356;50.920;5.350;2023-06-26T11:46:17;29.30;61.70
41668;DHT22;27356;50.920;5.350;2023-06-26T11:48:43;29.50;63.20
41668;DHT22;27356;50.920;5.350;2023-06-26T11:51:12;29.90;62.00
41668;DHT22;27356;50.920;5.350;2023-06-26T11:53:42;29.90;61.90
41668;DHT22;27356;50.920;5.350;2023-06-26T11:56:12;29.90;63.40
41668;DHT22;27356;50.920;5.350;2023-06-26T11:59:07;30.10;63.60
41668;DHT22;27356;50.920;5.350;2023-06-26T12:01:39;30.10;62.80
41668;DHT22;27356;50.920;5.350;2023-06-26T12:04:05;30.10;63.20
41668;DHT22;27356;50.920;5.350;2023-06-26T12:06:33;30.00;63.90
41668;DHT22;27356;50.920;5.350;2023-06-26T12:09:02;30.00;62.80
41668;DHT22;27356;50.920;5.350;2023-06-26T12:11:31;29.90;62.10
41668;DHT22;27356;50.920;5.350;2023-06-26T12:13:58;29.90;62.50
41668;DHT22;27356;50.920;5.350;2023-06-26T12:16:24;30.00;62.90
41668;DHT22;27356;50.920;5.350;2023-06-26T12:18:51;30.20;62.10
41668;DHT22;27356;50.920;5.350;2023-06-26T12:24:09;30.10;59.60
41668;DHT22;27356;50.920;5.350;2023-06-26T12:26:36;29.80;61.40
41668;DHT22;27356;50.920;5.350;2023-06-26T12:29:07;29.70;61.30
41668;DHT22;27356;50.920;5.350;2023-06-26T12:31:33;29.80;62.60
41668;DHT22;27356;50.920;5.350;2023-06-26T12:34:00;29.50;61.80
41668;DHT22;27356;50.920;5.350;2023-06-26T12:36:26;29.20;61.10
41668;DHT22;27356;50.920;5.350;2023-06-26T12:38:55;29.10;62.40
41668;DHT22;27356;50.920;5.350;2023-06-26T12:41:24;29.30;61.60
41668;DHT22;27356;50.920;5.350;2023-06-26T12:43:55;29.00;60.00
41668;DHT22;27356;50.920;5.350;2023-06-26T12:46:35;28.70;62.00
41668;DHT22;27356;50.920;5.350;2023-06-26T12:49:01;28.60;63.80
41668;DHT22;27356;50.920;5.350;2023-06-26T12:51:28;29.00;63.30
41668;DHT22;27356;50.920;5.350;2023-06-26T12:53:54;29.40;61.50
41668;DHT22;27356;50.920;5.350;2023-06-26T12:56:20;29.40;61.60
41668;DHT22;27356;50.920;5.350;2023-06-26T12:58:46;29.30;62.00
41668;DHT22;27356;50.920;5.350;2023-06-26T13:01:12;28.80;61.90
41668;DHT22;27356;50.920;5.350;2023-06-26T13:03:41;28.60;60.90
41668;DHT22;27356;50.920;5.350;2023-06-26T13:06:07;28.90;62.40
41668;DHT22;27356;50.920;5.350;2023-06-26T13:08:33;28.80;62.10
41668;DHT22;27356;50.920;5.350;2023-06-26T13:11:00;29.10;61.90
41668;DHT22;27356;50.920;5.350;2023-06-26T13:13:26;29.20;62.00
41668;DHT22;27356;50.920;5.350;2023-06-26T13:15:52;28.70;61.10
41668;DHT22;27356;50.920;5.350;2023-06-26T13:18:18;28.50;61.80
41668;DHT22;27356;50.920;5.350;2023-06-26T13:20:45;28.20;62.20
41668;DHT22;27356;50.920;5.350;2023-06-26T13:23:11;28.30;61.50
41668;DHT22;27356;50.920;5.350;2023-06-26T13:25:37;28.60;63.30
41668;DHT22;27356;50.920;5.350;2023-06-26T13:28:03;28.50;62.90
41668;DHT22;27356;50.920;5.350;2023-06-26T13:30:29;28.40;64.20
41668;DHT22;27356;50.920;5.350;2023-06-26T13:32:55;28.40;61.40
41668;DHT22;27356;50.920;5.350;2023-06-26T13:35:21;28.40;61.80
41668;DHT22;27356;50.920;5.350;2023-06-26T13:37:47;28.40;61.90
41668;DHT22;27356;50.920;5.350;2023-06-26T13:40:13;28.30;63.10
41668;DHT22;27356;50.920;5.350;2023-06-26T13:42:39;28.20;63.20
41668;DHT22;27356;50.920;5.350;2023-06-26T13:45:06;28.30;62.10
41668;DHT22;27356;50.920;5.350;2023-06-26T13:47:32;28.30;62.40
41668;DHT22;27356;50.920;5.350;2023-06-26T13:50:00;28.30;61.90
41668;DHT22;27356;50.920;5.350;2023-06-26T13:52:26;28.30;62.50
41668;DHT22;27356;50.920;5.350;2023-06-26T13:54:52;28.40;61.70
41668;DHT22;27356;50.920;5.350;2023-06-26T13:57:18;28.40;61.00
41668;DHT22;27356;50.920;5.350;2023-06-26T13:59:50;28.50;61.70
41668;DHT22;27356;50.920;5.350;2023-06-26T14:02:16;28.70;61.40
41668;DHT22;27356;50.920;5.350;2023-06-26T14:04:42;28.70;61.00
41668;DHT22;27356;50.920;5.350;2023-06-26T14:07:09;29.00;61.00
41668;DHT22;27356;50.920;5.350;2023-06-26T14:09:35;29.10;59.40
41668;DHT22;27356;50.920;5.350;2023-06-26T14:12:01;29.00;60.40
41668;DHT22;27356;50.920;5.350;2023-06-26T14:14:27;28.90;60.50
41668;DHT22;27356;50.920;5.350;2023-06-26T14:16:53;28.70;60.50
41668;DHT22;27356;50.920;5.350;2023-06-26T14:19:19;28.70;60.30
41668;DHT22;27356;50.920;5.350;2023-06-26T14:21:45;28.80;60.50
41668;DHT22;27356;50.920;5.350;2023-06-26T14:24:11;28.40;61.40
41668;DHT22;27356;50.920;5.350;2023-06-26T14:26:37;28.10;61.10
41668;DHT22;27356;50.920;5.350;2023-06-26T14:29:04;27.90;61.70
41668;DHT22;27356;50.920;5.350;2023-06-26T14:31:30;28.00;61.40
41668;DHT22;27356;50.920;5.350;2023-06-26T14:33:56;28.00;61.30
41668;DHT22;27356;50.920;5.350;2023-06-26T14:36:22;27.90;60.40
41668;DHT22;27356;50.920;5.350;2023-06-26T14:38:47;27.70;60.70
41668;DHT22;27356;50.920;5.350;2023-06-26T14:41:13;27.80;61.20
41668;DHT22;27356;50.920;5.350;2023-06-26T14:43:39;27.90;62.20
41668;DHT22;27356;50.920;5.350;2023-06-26T14:46:05;28.10;62.10
41668;DHT22;27356;50.920;5.350;2023-06-26T14:48:31;28.30;62.70
41668;DHT22;27356;50.920;5.350;2023-06-26T14:50:57;28.60;60.80
41668;DHT22;27356;50.920;5.350;2023-06-26T14:53:23;28.70;60.50
41668;DHT22;27356;50.920;5.350;2023-06-26T14:55:50;28.70;60.20
41668;DHT22;27356;50.920;5.350;2023-06-26T14:58:16;28.50;60.30
41668;DHT22;27356;50.920;5.350;2023-06-26T15:00:41;28.40;60.40
41668;DHT22;27356;50.920;5.350;2023-06-26T15:03:07;28.30;59.50
41668;DHT22;27356;50.920;5.350;2023-06-26T15:05:33;28.10;60.20
41668;DHT22;27356;50.920;5.350;2023-06-26T15:07:59;28.20;61.00
41668;DHT22;27356;50.920;5.350;2023-06-26T15:10:26;28.30;61.00
41668;DHT22;27356;50.920;5.350;2023-06-26T15:12:55;28.50;61.20
41668;DHT22;27356;50.920;5.350;2023-06-26T15:15:22;28.60;61.30
41668;DHT22;27356;50.920;5.350;2023-06-26T15:17:49;28.30;61.20
41668;DHT22;27356;50.920;5.350;2023-06-26T15:20:15;28.30;62.20
41668;DHT22;27356;50.920;5.350;2023-06-26T15:22:41;28.30;61.30
41668;DHT22;27356;50.920;5.350;2023-06-26T15:25:07;28.40;60.60
41668;DHT22;27356;50.920;5.350;2023-06-26T15:27:33;28.30;61.20
41668;DHT22;27356;50.920;5.350;2023-06-26T15:29:59;28.20;61.80
41668;DHT22;27356;50.920;5.350;2023-06-26T15:32:24;28.10;61.90
41668;DHT22;27356;50.920;5.350;2023-06-26T15:34:50;28.00;60.50
41668;DHT22;27356;50.920;5.350;2023-06-26T15:37:16;27.90;61.70
41668;DHT22;27356;50.920;5.350;2023-06-26T15:39:42;28.10;61.90
41668;DHT22;27356;50.920;5.350;2023-06-26T15:42:08;28.10;63.10
41668;DHT22;27356;50.920;5.350;2023-06-26T15:44:34;27.90;61.70
41668;DHT22;27356;50.920;5.350;2023-06-26T15:47:00;27.50;60.40